createdAt,value
2019-01-17T00:00:39.996Z,8.83
2019-01-17T00:03:22.087Z,8.47
2019-01-17T00:05:57.686Z,9.97
2019-01-17T00:08:39.863Z,8.70
2019-01-17T00:11:25.004Z,8.60
2019-01-17T00:14:01.182Z,9.17
2019-01-17T00:16:47.762Z,8.47
2019-01-17T00:19:34.607Z,9.13
2019-01-17T00:22:20.568Z,8.17
2019-01-17T00:24:57.701Z,8.40
2019-01-17T00:27:30.843Z,8.23
2019-01-17T00:30:16.789Z,8.80
2019-01-17T00:32:46.885Z,7.77
2019-01-17T00:35:26.118Z,11.43
2019-01-17T00:38:05.114Z,7.30
2019-01-17T00:40:35.355Z,8.70
2019-01-17T00:43:14.717Z,7.53
2019-01-17T00:45:44.873Z,6.60
2019-01-17T00:48:20.834Z,7.30
2019-01-17T00:51:10.204Z,7.37
2019-01-17T00:53:43.078Z,8.03
2019-01-17T00:56:22.100Z,6.87
2019-01-17T00:58:55.122Z,8.97
2019-01-17T01:01:43.635Z,7.10
2019-01-17T01:04:30.770Z,7.90
2019-01-17T01:07:03.639Z,7.47
2019-01-17T01:09:48.754Z,7.33
2019-01-17T01:12:30.671Z,7.30
2019-01-17T01:15:00.867Z,7.53
2019-01-17T01:17:30.986Z,6.70
2019-01-17T01:20:06.636Z,6.33
2019-01-17T01:22:36.809Z,7.40
2019-01-17T01:25:09.593Z,6.53
2019-01-17T01:27:51.971Z,6.47
2019-01-17T01:30:40.450Z,6.90
2019-01-17T01:33:26.755Z,6.53
2019-01-17T01:35:56.938Z,7.07
2019-01-17T01:38:43.501Z,6.50
2019-01-17T01:41:25.442Z,6.83
2019-01-17T01:43:58.683Z,6.83
2019-01-17T01:46:31.785Z,6.47
2019-01-17T01:49:18.243Z,6.90
2019-01-17T01:51:48.353Z,7.17
2019-01-17T01:54:21.978Z,7.00
2019-01-17T01:56:47.006Z,6.83
2019-01-17T01:59:15.527Z,7.00
2019-01-17T02:01:44.088Z,6.67
2019-01-17T02:04:12.619Z,6.37
2019-01-17T02:06:41.282Z,6.30
2019-01-17T02:09:09.865Z,6.87
2019-01-17T02:11:38.285Z,6.77
2019-01-17T02:14:07.994Z,6.80
2019-01-17T02:16:38.062Z,6.40
2019-01-17T02:19:06.496Z,6.80
2019-01-17T02:21:35.078Z,7.53
2019-01-17T02:24:04.523Z,7.30
2019-01-17T02:26:33.510Z,7.97
2019-01-17T02:29:01.980Z,7.43
2019-01-17T02:31:31.445Z,7.23
2019-01-17T02:34:00.862Z,7.03
2019-01-17T02:36:30.980Z,7.73
2019-01-17T02:38:59.450Z,8.27
2019-01-17T02:41:27.956Z,7.80
2019-01-17T02:43:56.566Z,7.53
2019-01-17T02:46:25.145Z,7.67
2019-01-17T02:48:53.772Z,8.20
2019-01-17T02:51:22.191Z,7.57
2019-01-17T02:53:52.175Z,7.87
2019-01-17T02:56:20.792Z,8.10
2019-01-17T02:58:49.340Z,8.07
2019-01-17T03:01:17.848Z,7.63
2019-01-17T03:03:46.336Z,7.13
2019-01-17T03:06:16.412Z,7.57
2019-01-17T03:08:44.868Z,7.60
2019-01-17T03:11:13.348Z,7.50
2019-01-17T03:13:43.921Z,7.50
2019-01-17T03:16:12.435Z,7.63
2019-01-17T03:18:40.879Z,6.73
2019-01-17T03:21:09.477Z,6.93
2019-01-17T03:23:37.974Z,6.33
2019-01-17T03:26:06.389Z,6.67
2019-01-17T03:28:34.843Z,6.47
2019-01-17T03:31:03.377Z,6.50
2019-01-17T03:33:31.764Z,6.50
2019-01-17T03:36:00.366Z,6.43
2019-01-17T03:38:28.876Z,6.33
2019-01-17T03:40:57.333Z,6.03
2019-01-17T03:43:25.773Z,5.67
2019-01-17T03:45:55.406Z,6.80
2019-01-17T03:48:23.890Z,6.27
2019-01-17T03:50:52.319Z,6.47
2019-01-17T03:53:20.731Z,7.07
2019-01-17T03:55:49.437Z,7.57
2019-01-17T03:58:17.960Z,9.40
2019-01-17T04:00:52.734Z,8.70
2019-01-17T04:03:21.240Z,8.20
2019-01-17T04:05:49.702Z,7.73
2019-01-17T04:08:18.225Z,8.07
2019-01-17T04:10:46.723Z,6.30
2019-01-17T04:13:16.721Z,6.27
2019-01-17T04:15:45.151Z,5.57
2019-01-17T04:18:13.658Z,6.67
2019-01-17T04:20:42.167Z,5.73
2019-01-17T04:23:10.588Z,4.63
2019-01-17T04:25:39.010Z,5.13
2019-01-17T04:28:07.503Z,6.30
2019-01-17T04:30:35.940Z,5.23
2019-01-17T04:33:04.397Z,6.63
2019-01-17T04:35:32.949Z,6.77
2019-01-17T04:38:01.416Z,6.83
2019-01-17T04:40:29.909Z,7.80
2019-01-17T04:42:58.372Z,6.90
2019-01-17T04:45:27.794Z,5.87
2019-01-17T04:47:56.238Z,5.90
2019-01-17T04:50:24.672Z,5.00
2019-01-17T04:52:53.266Z,5.10
2019-01-17T04:55:21.721Z,5.07
2019-01-17T04:57:50.174Z,5.30
2019-01-17T05:00:20.497Z,4.40
2019-01-17T05:02:49.002Z,4.27
2019-01-17T05:05:17.541Z,4.50
2019-01-17T05:07:46.048Z,3.87
2019-01-17T05:10:16.344Z,3.87
2019-01-17T05:12:44.774Z,3.83
2019-01-17T05:15:17.059Z,4.10
2019-01-17T05:17:45.501Z,4.10
2019-01-17T05:20:15.653Z,3.73
2019-01-17T05:22:44.251Z,4.13
2019-01-17T05:25:13.328Z,3.90
2019-01-17T05:27:42.952Z,3.60
2019-01-17T05:30:16.812Z,3.97
2019-01-17T05:32:45.451Z,3.53
2019-01-17T05:35:15.989Z,3.87
2019-01-17T05:37:44.502Z,3.87
2019-01-17T05:40:18.021Z,3.20
2019-01-17T05:42:46.522Z,3.00
2019-01-17T05:45:16.637Z,3.50
2019-01-17T05:47:45.143Z,3.37
2019-01-17T05:50:15.890Z,3.30
2019-01-17T05:52:45.624Z,6.43
2019-01-17T05:55:19.805Z,4.10
2019-01-17T05:57:44.521Z,3.27
2019-01-17T06:00:17.996Z,3.03
2019-01-17T06:02:46.543Z,2.90
2019-01-17T06:05:16.255Z,2.80
2019-01-17T06:07:44.908Z,2.80
2019-01-17T06:10:13.690Z,2.70
2019-01-17T06:12:42.384Z,2.50
2019-01-17T06:15:14.157Z,2.97
2019-01-17T06:17:42.685Z,2.97
2019-01-17T06:20:15.856Z,3.23
2019-01-17T06:22:44.881Z,3.43
2019-01-17T06:25:13.889Z,2.80
2019-01-17T06:27:42.553Z,3.10
2019-01-17T06:30:13.724Z,2.90
2019-01-17T06:32:42.258Z,3.00
2019-01-17T06:35:11.529Z,3.47
2019-01-17T06:37:40.247Z,2.90
2019-01-17T06:40:11.775Z,3.67
2019-01-17T06:42:42.011Z,3.20
2019-01-17T06:45:10.569Z,3.40
2019-01-17T06:47:40.698Z,3.50
2019-01-17T06:50:10.619Z,4.27
2019-01-17T06:52:39.339Z,5.63
2019-01-17T06:55:08.813Z,4.03
2019-01-17T06:57:37.460Z,3.80
2019-01-17T07:00:14.793Z,3.80
2019-01-17T07:02:43.615Z,4.03
2019-01-17T07:05:15.216Z,4.40
2019-01-17T07:07:43.742Z,4.20
2019-01-17T07:10:16.261Z,4.50
2019-01-17T07:12:46.129Z,4.87
2019-01-17T07:15:15.133Z,4.20
2019-01-17T07:17:43.760Z,6.33
2019-01-17T07:20:14.926Z,6.90
2019-01-17T07:22:51.131Z,7.43
2019-01-17T07:25:25.931Z,6.70
2019-01-17T07:27:52.949Z,5.87
2019-01-17T07:30:23.343Z,7.23
2019-01-17T07:32:51.958Z,5.40
2019-01-17T07:35:20.489Z,5.13
2019-01-17T07:37:50.803Z,6.00
2019-01-17T07:40:19.312Z,5.30
2019-01-17T07:42:47.953Z,6.00
2019-01-17T07:45:22.664Z,5.10
2019-01-17T07:47:51.212Z,5.10
2019-01-17T07:50:19.664Z,6.00
2019-01-17T07:52:48.270Z,4.90
2019-01-17T07:55:16.901Z,5.60
2019-01-17T07:57:45.515Z,5.67
2019-01-17T08:00:19.731Z,5.53
2019-01-17T08:02:48.253Z,7.37
2019-01-17T08:05:18.831Z,5.40
2019-01-17T08:07:47.067Z,5.20
2019-01-17T08:10:17.827Z,4.60
2019-01-17T08:12:46.382Z,5.30
2019-01-17T08:15:16.761Z,4.57
2019-01-17T08:17:45.480Z,5.73
2019-01-17T08:20:17.075Z,5.23
2019-01-17T08:22:45.639Z,5.03
2019-01-17T08:25:14.501Z,5.47
2019-01-17T08:27:44.470Z,6.10
2019-01-17T08:30:18.194Z,6.47
2019-01-17T08:32:46.680Z,6.73
2019-01-17T08:35:16.007Z,6.63
2019-01-17T08:37:44.461Z,8.10
2019-01-17T08:40:25.233Z,8.03
2019-01-17T08:42:53.711Z,10.07
2019-01-17T08:45:23.784Z,7.43
2019-01-17T08:47:52.337Z,9.20
2019-01-17T08:50:20.918Z,7.13
2019-01-17T08:52:49.449Z,7.47
2019-01-17T08:55:18.063Z,9.47
2019-01-17T08:57:46.514Z,9.53
2019-01-17T09:00:19.951Z,13.03
2019-01-17T09:02:48.425Z,8.23
2019-01-17T09:05:18.045Z,8.00
2019-01-17T09:07:46.724Z,6.97
2019-01-17T09:10:23.474Z,5.60
2019-01-17T09:12:52.664Z,5.20
2019-01-17T09:15:32.510Z,5.27
2019-01-17T09:18:01.392Z,4.90
2019-01-17T09:20:29.886Z,5.27
2019-01-17T09:22:58.447Z,5.27
2019-01-17T09:25:26.998Z,5.40
2019-01-17T09:27:55.481Z,6.23
2019-01-17T09:30:24.015Z,5.97
2019-01-17T09:32:52.593Z,6.47
2019-01-17T09:35:21.376Z,6.47
2019-01-17T09:37:49.892Z,6.40
2019-01-17T09:40:20.318Z,6.50
2019-01-17T09:42:48.863Z,7.13
2019-01-17T09:45:17.490Z,6.60
2019-01-17T09:47:45.934Z,7.17
2019-01-17T09:50:19.102Z,7.27
2019-01-17T09:52:47.691Z,7.07
2019-01-17T09:55:16.372Z,8.00
2019-01-17T09:57:44.897Z,6.80
2019-01-17T10:00:19.137Z,7.87
2019-01-17T10:02:47.524Z,7.23
2019-01-17T10:05:16.040Z,7.17
2019-01-17T10:07:44.539Z,7.50
2019-01-17T10:10:15.530Z,7.47
2019-01-17T10:12:44.172Z,7.83
2019-01-17T10:15:27.455Z,7.87
2019-01-17T10:18:29.751Z,10.93
2019-01-17T10:21:29.996Z,7.23
2019-01-17T10:24:13.506Z,7.13
2019-01-17T10:27:03.142Z,7.27
2019-01-17T10:29:51.507Z,7.87
2019-01-17T10:32:45.827Z,8.10
2019-01-17T10:35:41.632Z,8.87
2019-01-17T10:38:21.483Z,7.10
2019-01-17T10:41:09.684Z,7.73
2019-01-17T10:43:50.091Z,8.70
2019-01-17T10:46:42.557Z,8.13
2019-01-17T10:49:39.929Z,8.43
2019-01-17T10:52:35.337Z,9.23
2019-01-17T10:55:27.595Z,7.27
2019-01-17T10:58:01.764Z,8.60
2019-01-17T11:00:56.051Z,7.97
2019-01-17T11:03:36.670Z,8.10
2019-01-17T11:06:17.086Z,9.27
2019-01-17T11:08:54.665Z,8.50
2019-01-17T11:11:28.837Z,8.17
2019-01-17T11:14:09.019Z,8.83
2019-01-17T11:16:43.258Z,8.73
2019-01-17T11:19:23.485Z,8.97
2019-01-17T11:22:04.157Z,9.13
2019-01-17T11:24:41.527Z,8.30
2019-01-17T11:27:34.025Z,8.83
2019-01-17T11:30:29.483Z,8.80
2019-01-17T11:33:06.511Z,8.50
2019-01-17T11:35:40.906Z,8.33
2019-01-17T11:38:24.360Z,8.43
2019-01-17T11:40:58.402Z,7.37
2019-01-17T11:43:46.407Z,8.60
2019-01-17T11:46:23.432Z,8.50
2019-01-17T11:49:09.872Z,8.30
2019-01-17T11:52:02.442Z,7.97
2019-01-17T11:54:51.767Z,8.90
2019-01-17T11:57:43.545Z,8.70
2019-01-17T12:00:33.186Z,7.67
2019-01-17T12:03:10.771Z,8.40
2019-01-17T12:05:39.272Z,8.33
2019-01-17T12:08:07.785Z,8.10
2019-01-17T12:10:37.381Z,7.27
2019-01-17T12:13:06.026Z,8.87
2019-01-17T12:15:34.565Z,7.67
2019-01-17T12:18:03.107Z,7.33
2019-01-17T12:20:31.593Z,7.20
2019-01-17T12:23:00.097Z,7.80
2019-01-17T12:25:28.631Z,7.20
2019-01-17T12:27:57.074Z,7.50
2019-01-17T12:30:25.523Z,7.17
2019-01-17T12:32:55.310Z,7.27
2019-01-17T12:35:23.836Z,6.87
2019-01-17T12:37:52.322Z,6.87
2019-01-17T12:40:20.853Z,6.93
2019-01-17T12:42:49.336Z,6.83
2019-01-17T12:45:17.798Z,6.73
2019-01-17T12:47:46.261Z,5.87
2019-01-17T12:50:16.153Z,6.00
2019-01-17T12:52:44.589Z,6.50
2019-01-17T12:55:13.156Z,6.17
2019-01-17T12:57:41.721Z,6.73
2019-01-17T13:00:13.586Z,7.17
2019-01-17T13:02:42.102Z,6.57
2019-01-17T13:05:10.807Z,6.77
2019-01-17T13:07:39.265Z,6.27
2019-01-17T13:10:10.976Z,5.13
2019-01-17T13:12:39.503Z,5.10
2019-01-17T13:15:10.913Z,9.30
2019-01-17T13:17:39.516Z,6.83
2019-01-17T13:20:11.150Z,5.33
2019-01-17T13:22:40.158Z,4.60
2019-01-17T13:25:14.925Z,4.40
2019-01-17T13:27:43.450Z,3.90
2019-01-17T13:30:17.635Z,4.20
2019-01-17T13:32:46.144Z,3.73
2019-01-17T13:35:14.731Z,3.63
2019-01-17T13:37:43.242Z,5.87
2019-01-17T13:40:15.018Z,5.50
2019-01-17T13:42:43.507Z,5.67
2019-01-17T13:45:15.231Z,5.00
2019-01-17T13:47:43.753Z,6.50
2019-01-17T13:50:13.778Z,4.70
2019-01-17T13:52:42.398Z,4.37
2019-01-17T13:55:13.358Z,5.23
2019-01-17T13:57:41.829Z,4.80
2019-01-17T14:00:13.378Z,4.40
2019-01-17T14:02:41.901Z,4.70
2019-01-17T14:05:10.584Z,4.40
2019-01-17T14:07:39.138Z,5.23
2019-01-17T14:10:16.731Z,4.00
2019-01-17T14:12:45.247Z,3.50
2019-01-17T14:15:28.546Z,3.77
2019-01-17T14:17:57.105Z,3.80
2019-01-17T14:20:25.604Z,3.20
2019-01-17T14:22:54.225Z,3.60
2019-01-17T14:25:22.818Z,3.60
2019-01-17T14:27:51.560Z,3.63
2019-01-17T14:30:27.112Z,6.60
2019-01-17T14:32:55.695Z,4.17
2019-01-17T14:35:24.593Z,3.53
2019-01-17T14:37:53.227Z,3.23
2019-01-17T14:40:21.760Z,3.23
2019-01-17T14:42:50.269Z,3.57
2019-01-17T14:45:21.410Z,3.30
2019-01-17T14:47:50.116Z,3.07
2019-01-17T14:50:21.465Z,3.60
2019-01-17T14:52:50.090Z,3.60
2019-01-17T14:55:18.480Z,3.90
2019-01-17T14:57:49.098Z,3.90
2019-01-17T15:00:20.228Z,4.17
2019-01-17T15:02:48.784Z,4.20
2019-01-17T15:05:17.328Z,4.63
2019-01-17T15:07:45.886Z,4.40
2019-01-17T15:10:29.594Z,4.70
2019-01-17T15:12:58.187Z,5.10
2019-01-17T15:15:26.658Z,4.33
2019-01-17T15:17:55.234Z,4.50
2019-01-17T15:20:23.702Z,4.30
2019-01-17T15:22:53.222Z,4.67
2019-01-17T15:25:21.742Z,5.37
2019-01-17T15:27:50.245Z,4.70
2019-01-17T15:30:25.837Z,4.60
2019-01-17T15:32:54.819Z,4.90
2019-01-17T15:35:23.461Z,5.13
2019-01-17T15:37:51.981Z,5.40
2019-01-17T15:40:23.284Z,5.83
2019-01-17T15:42:51.636Z,5.57
2019-01-17T15:45:20.246Z,5.53
2019-01-17T15:47:48.784Z,5.47
2019-01-17T15:50:18.966Z,6.30
2019-01-17T15:52:47.404Z,5.97
2019-01-17T15:55:16.804Z,5.83
2019-01-17T15:57:45.391Z,6.07
2019-01-17T16:00:19.739Z,5.77
2019-01-17T16:02:48.185Z,7.80
2019-01-17T16:05:16.737Z,7.70
2019-01-17T16:07:46.476Z,6.77
2019-01-17T16:10:16.259Z,7.77
2019-01-17T16:12:46.260Z,6.10
2019-01-17T16:15:20.319Z,9.60
2019-01-17T16:17:48.888Z,6.17
2019-01-17T16:20:17.953Z,5.50
2019-01-17T16:22:46.955Z,5.23
2019-01-17T16:25:16.037Z,5.53
2019-01-17T16:27:44.647Z,4.83
2019-01-17T16:30:16.583Z,4.50
2019-01-17T16:32:45.167Z,7.17
2019-01-17T16:35:13.748Z,3.87
2019-01-17T16:37:42.315Z,3.27
2019-01-17T16:40:12.253Z,3.27
2019-01-17T16:42:40.770Z,3.43
2019-01-17T16:45:12.436Z,4.10
2019-01-17T16:47:40.862Z,4.10
2019-01-17T16:50:14.462Z,4.40
2019-01-17T16:52:42.898Z,4.20
2019-01-17T16:55:12.074Z,4.87
2019-01-17T16:57:40.576Z,4.10
2019-01-17T17:00:17.797Z,4.30
2019-01-17T17:02:46.406Z,6.30
2019-01-17T17:05:15.326Z,7.37
2019-01-17T17:07:43.714Z,11.57
2019-01-17T17:10:14.813Z,4.20
2019-01-17T17:12:43.319Z,3.27
2019-01-17T17:15:11.976Z,3.47
2019-01-17T17:17:40.429Z,2.97
2019-01-17T17:20:20.726Z,3.27
2019-01-17T17:22:49.407Z,2.70
2019-01-17T17:25:19.396Z,2.33
2019-01-17T17:27:47.906Z,3.00
2019-01-17T17:30:21.453Z,2.40
2019-01-17T17:32:49.964Z,1.87
2019-01-17T17:35:18.491Z,1.90
2019-01-17T17:37:47.778Z,1.80
2019-01-17T17:40:21.095Z,2.30
2019-01-17T17:42:53.010Z,2.20
2019-01-17T17:45:21.947Z,2.40
2019-01-17T17:47:50.450Z,2.27
2019-01-17T17:50:21.414Z,1.80
2019-01-17T17:52:50.017Z,1.90
2019-01-17T17:55:19.360Z,1.77
2019-01-17T17:57:47.876Z,1.80
2019-01-17T18:00:26.089Z,1.93
2019-01-17T18:02:55.906Z,1.40
2019-01-17T18:05:24.612Z,1.70
2019-01-17T18:07:53.221Z,2.03
2019-01-17T18:10:23.305Z,1.67
2019-01-17T18:12:53.279Z,1.77
2019-01-17T18:15:21.815Z,2.20
2019-01-17T18:17:50.370Z,1.70
2019-01-17T18:20:19.014Z,1.90
2019-01-17T18:22:47.437Z,2.20
2019-01-17T18:25:16.051Z,1.70
2019-01-17T18:27:44.551Z,1.30
2019-01-17T18:30:26.623Z,4.37
2019-01-17T18:32:55.347Z,1.43
2019-01-17T18:35:23.914Z,1.63
2019-01-17T18:37:52.414Z,1.50
2019-01-17T18:40:22.424Z,2.00
2019-01-17T18:42:51.063Z,2.33
2019-01-17T18:45:22.480Z,2.63
2019-01-17T18:47:51.015Z,2.97
2019-01-17T18:50:22.496Z,2.80
2019-01-17T18:52:54.105Z,3.30
2019-01-17T18:55:22.537Z,2.90
2019-01-17T18:57:51.042Z,3.20
2019-01-17T19:00:23.257Z,2.90
2019-01-17T19:02:51.853Z,3.67
2019-01-17T19:05:21.493Z,2.80
2019-01-17T19:07:50.021Z,3.07
2019-01-17T19:10:19.832Z,3.73
2019-01-17T19:12:48.478Z,3.90
2019-01-17T19:15:19.498Z,3.20
2019-01-17T19:17:48.096Z,6.07
2019-01-17T19:20:19.487Z,9.90
2019-01-17T19:22:48.283Z,5.80
2019-01-17T19:25:16.909Z,4.30
2019-01-17T19:27:45.481Z,5.23
2019-01-17T19:30:19.770Z,4.23
2019-01-17T19:32:48.350Z,4.10
2019-01-17T19:35:16.966Z,4.03
2019-01-17T19:37:45.662Z,5.00
2019-01-17T19:40:19.328Z,4.50
2019-01-17T19:42:47.844Z,4.93
2019-01-17T19:45:16.891Z,4.13
2019-01-17T19:47:45.467Z,4.90
2019-01-17T19:50:20.022Z,4.13
2019-01-17T19:52:48.757Z,4.40
2019-01-17T19:55:17.503Z,4.30
2019-01-17T19:57:46.231Z,3.90
2019-01-17T20:00:17.867Z,3.80
2019-01-17T20:02:46.711Z,3.80
2019-01-17T20:05:17.864Z,3.70
2019-01-17T20:07:46.514Z,3.30
2019-01-17T20:10:17.962Z,2.80
2019-01-17T20:12:46.552Z,4.10
2019-01-17T20:15:16.652Z,3.10
2019-01-17T20:17:45.277Z,2.80
2019-01-17T20:20:16.665Z,3.77
2019-01-17T20:22:47.508Z,3.00
2019-01-17T20:25:20.065Z,2.70
2019-01-17T20:27:48.686Z,2.90
2019-01-17T20:30:19.894Z,2.70
2019-01-17T20:32:49.058Z,2.80
2019-01-17T20:35:17.884Z,3.17
2019-01-17T20:37:47.920Z,2.20
2019-01-17T20:40:19.473Z,1.90
2019-01-17T20:42:48.029Z,2.03
2019-01-17T20:45:16.693Z,1.80
2019-01-17T20:47:45.226Z,1.80
2019-01-17T20:50:18.935Z,1.70
2019-01-17T20:52:47.436Z,1.80
2019-01-17T20:55:15.894Z,1.60
2019-01-17T20:57:45.952Z,1.47
2019-01-17T21:00:19.363Z,1.70
2019-01-17T21:02:47.878Z,1.73
2019-01-17T21:05:16.908Z,1.95
2019-01-17T21:07:45.537Z,1.80
2019-01-17T21:10:16.318Z,2.07
2019-01-17T21:12:44.924Z,2.63
2019-01-17T21:15:15.110Z,2.67
2019-01-17T21:17:43.839Z,2.70
2019-01-17T21:20:13.910Z,2.70
2019-01-17T21:22:42.522Z,2.80
2019-01-17T21:25:13.951Z,3.20
2019-01-17T21:27:42.417Z,3.73
2019-01-17T21:30:14.162Z,3.20
2019-01-17T21:32:42.886Z,3.20
2019-01-17T21:35:11.948Z,3.27
2019-01-17T21:37:40.371Z,3.40
2019-01-17T21:40:23.307Z,2.97
2019-01-17T21:42:51.803Z,3.60
2019-01-17T21:45:20.827Z,3.70
2019-01-17T21:47:49.423Z,3.17
2019-01-17T21:50:29.341Z,3.10
2019-01-17T21:52:57.883Z,2.90
2019-01-17T21:55:26.341Z,2.50
2019-01-17T21:57:54.842Z,2.80
2019-01-17T22:00:25.974Z,2.93
2019-01-17T22:02:54.567Z,2.53
2019-01-17T22:05:23.030Z,2.93
2019-01-17T22:07:51.509Z,2.60
2019-01-17T22:10:31.476Z,2.97
2019-01-17T22:12:59.947Z,2.53
2019-01-17T22:15:28.446Z,2.60
2019-01-17T22:17:57.149Z,2.70
2019-01-17T22:20:25.849Z,2.80
2019-01-17T22:22:54.378Z,2.40
2019-01-17T22:25:22.892Z,2.50
2019-01-17T22:27:52.924Z,2.70
2019-01-17T22:30:24.077Z,2.83
2019-01-17T22:32:52.509Z,2.60
2019-01-17T22:35:21.085Z,3.13
2019-01-17T22:37:49.643Z,2.40
2019-01-17T22:40:19.198Z,2.50
2019-01-17T22:42:47.706Z,2.70
2019-01-17T22:45:18.709Z,2.70
2019-01-17T22:47:47.294Z,3.00
2019-01-17T22:50:17.759Z,2.80
2019-01-17T22:52:46.572Z,2.30
2019-01-17T22:55:15.202Z,2.40
2019-01-17T22:57:43.710Z,4.27
2019-01-17T23:00:28.931Z,3.03
2019-01-17T23:02:57.476Z,4.03
2019-01-17T23:05:25.917Z,2.73
2019-01-17T23:07:54.486Z,2.67
2019-01-17T23:10:22.927Z,2.70
2019-01-17T23:12:51.382Z,2.80
2019-01-17T23:15:19.926Z,2.47
2019-01-17T23:17:48.499Z,2.33
2019-01-17T23:20:17.123Z,2.73
2019-01-17T23:22:45.708Z,2.90
2019-01-17T23:25:14.253Z,2.90
2019-01-17T23:27:42.719Z,3.23
2019-01-17T23:30:13.478Z,3.47
2019-01-17T23:32:41.929Z,3.40
2019-01-17T23:35:10.411Z,2.60
2019-01-17T23:37:38.822Z,2.80
2019-01-17T23:40:11.042Z,2.50
2019-01-17T23:42:39.789Z,2.53
2019-01-17T23:45:08.999Z,2.83
2019-01-17T23:47:37.450Z,2.70
2019-01-17T23:50:08.455Z,2.90
2019-01-17T23:52:37.053Z,2.63
2019-01-17T23:55:06.975Z,2.77
2019-01-17T23:57:35.865Z,2.70
